Time;durP1;ratioP1;P1;durP2;ratioP2;P2;SDS_P1;SDS_P2;PMS_P1;PMS_P2;Temp;Humidity;BMP_temperature;BMP_pressure;BME280_temperature;BME280_humidity;BME280_pressure;Samples;Min_cycle;Max_cycle;Signal;HPM_P1;HPM_P2
2024/03/07 00:01:02;;;;;;;43.33;16.27;;;6.30;99.90;;;;;;5033989;28;20390;-39
2024/03/07 00:03:28;;;;;;;39.47;15.20;;;6.30;99.90;;;;;;5033748;28;20433;-39
2024/03/07 00:05:53;;;;;;;38.97;15.73;;;6.30;99.90;;;;;;5033561;28;20029;-39
2024/03/07 00:08:19;;;;;;;38.63;15.82;;;6.30;99.90;;;;;;5033402;28;20033;-40
2024/03/07 00:10:45;;;;;;;49.90;15.88;;;6.30;99.90;;;;;;5033403;28;20036;-39
2024/03/07 00:13:12;;;;;;;38.13;17.15;;;6.30;99.90;;;;;;5033439;28;20075;-39
2024/03/07 00:15:40;;;;;;;45.08;17.60;;;6.30;99.90;;;;;;5033453;28;20482;-43
2024/03/07 00:18:05;;;;;;;46.33;16.50;;;6.30;99.90;;;;;;5033706;28;20466;-43
2024/03/07 00:20:31;;;;;;;43.28;16.85;;;6.30;99.90;;;;;;5033385;28;20112;-40
2024/03/07 00:22:57;;;;;;;40.15;16.83;;;6.30;99.90;;;;;;5032000;28;20412;-40
2024/03/07 00:25:23;;;;;;;48.90;17.83;;;6.20;99.90;;;;;;5033513;28;20033;-38
2024/03/07 00:27:49;;;;;;;40.58;15.52;;;6.20;99.90;;;;;;5033446;28;20025;-40
2024/03/07 00:30:18;;;;;;;42.08;15.10;;;6.10;99.90;;;;;;5033146;28;20033;-40
2024/03/07 00:32:44;;;;;;;42.65;16.30;;;6.10;99.90;;;;;;5032840;28;20494;-37
2024/03/07 00:35:10;;;;;;;48.03;18.05;;;6.10;99.90;;;;;;5031952;28;20018;-54
2024/03/07 00:37:36;;;;;;;36.92;15.88;;;6.10;99.90;;;;;;5033032;28;20017;-55
2024/03/07 00:40:03;;;;;;;35.72;15.30;;;6.10;99.90;;;;;;5032978;28;20037;-53
2024/03/07 00:42:28;;;;;;;39.70;16.50;;;6.00;99.90;;;;;;5032899;28;20026;-53
2024/03/07 00:44:54;;;;;;;38.22;16.08;;;6.00;99.90;;;;;;5032808;28;20048;-53
2024/03/07 00:47:20;;;;;;;34.35;15.57;;;5.90;99.90;;;;;;5033140;28;20486;-53
2024/03/07 00:49:49;;;;;;;39.25;16.05;;;5.90;99.90;;;;;;5032724;28;20029;-53
2024/03/07 00:52:15;;;;;;;47.83;17.33;;;5.90;99.90;;;;;;5032710;28;20481;-54
2024/03/07 00:54:41;;;;;;;32.90;13.82;;;5.90;99.90;;;;;;5032723;28;20025;-53
2024/03/07 00:57:07;;;;;;;41.22;16.42;;;5.90;99.90;;;;;;5032720;28;20382;-54
2024/03/07 00:59:33;;;;;;;41.00;16.30;;;5.90;99.90;;;;;;5032654;28;20029;-52
2024/03/07 01:01:59;;;;;;;44.42;16.23;;;5.90;99.90;;;;;;5032666;28;20152;-52
2024/03/07 01:04:30;;;;;;;50.05;16.60;;;5.80;99.90;;;;;;5032764;28;20411;-53
2024/03/07 01:06:57;;;;;;;40.33;16.52;;;5.80;99.90;;;;;;5032515;28;20079;-54
2024/03/07 01:09:23;;;;;;;40.80;16.35;;;5.80;99.90;;;;;;5032492;28;20629;-53
2024/03/07 01:11:49;;;;;;;40.28;15.32;;;5.90;99.90;;;;;;5032675;28;20124;-54
2024/03/07 01:14:15;;;;;;;38.55;15.40;;;5.90;99.90;;;;;;5032642;28;20474;-54
2024/03/07 01:16:41;;;;;;;44.70;16.92;;;5.90;99.90;;;;;;5032484;28;20055;-54
2024/03/07 01:19:08;;;;;;;41.13;16.05;;;5.80;99.90;;;;;;5031731;28;20036;-53
2024/03/07 01:21:34;;;;;;;48.10;17.77;;;5.90;99.90;;;;;;5032394;28;20036;-53
2024/03/07 01:24:03;;;;;;;48.92;16.67;;;5.90;99.90;;;;;;5032327;28;20104;-54
2024/03/07 01:26:30;;;;;;;44.58;16.40;;;5.90;99.90;;;;;;5032286;28;20073;-52
2024/03/07 01:28:58;;;;;;;44.05;16.13;;;5.80;99.90;;;;;;5032298;28;20034;-53
2024/03/07 01:31:23;;;;;;;38.70;15.63;;;5.80;99.90;;;;;;5032196;28;20088;-52
2024/03/07 01:33:50;;;;;;;44.15;16.25;;;5.70;99.90;;;;;;5032123;28;20042;-55
2024/03/07 01:36:15;;;;;;;42.60;16.05;;;5.70;99.90;;;;;;5032224;28;20033;-54
2024/03/07 01:38:42;;;;;;;47.20;15.77;;;5.60;99.90;;;;;;5032242;28;20029;-52
2024/03/07 01:41:08;;;;;;;37.10;15.88;;;5.60;99.90;;;;;;5032490;28;20440;-53
2024/03/07 01:43:33;;;;;;;39.88;17.25;;;5.70;99.90;;;;;;5030902;28;20041;-53
2024/03/07 01:45:59;;;;;;;41.42;16.13;;;5.60;99.90;;;;;;5032262;28;20028;-53
2024/03/07 01:48:28;;;;;;;38.22;16.30;;;5.50;99.90;;;;;;5032025;28;20033;-52
2024/03/07 01:50:58;;;;;;;46.97;16.90;;;5.50;99.90;;;;;;5032041;28;20061;-52
2024/03/07 01:53:28;;;;;;;45.05;15.68;;;5.40;99.90;;;;;;5032427;28;20505;-50
2024/03/07 01:55:54;;;;;;;38.85;16.42;;;5.30;99.90;;;;;;5032106;28;20401;-50
2024/03/07 01:58:21;;;;;;;41.17;16.58;;;5.30;99.90;;;;;;5031943;28;20026;-52
2024/03/07 02:00:47;;;;;;;44.00;16.83;;;5.20;99.90;;;;;;5031956;28;20504;-53
2024/03/07 02:03:13;;;;;;;40.90;16.48;;;5.30;99.90;;;;;;5031808;28;20100;-51
2024/03/07 02:05:40;;;;;;;44.03;17.65;;;5.30;99.90;;;;;;5031213;28;20548;-53
2024/03/07 02:08:06;;;;;;;51.72;17.73;;;5.30;99.90;;;;;;5032054;28;20505;-55
2024/03/07 02:10:31;;;;;;;49.25;18.27;;;5.20;99.90;;;;;;5031796;28;20022;-53
2024/03/07 02:12:57;;;;;;;42.10;16.48;;;5.20;99.90;;;;;;5031840;28;20029;-53
2024/03/07 02:15:23;;;;;;;45.45;17.55;;;5.20;99.90;;;;;;5031756;28;20056;-53
2024/03/07 02:17:48;;;;;;;41.17;17.63;;;5.30;99.90;;;;;;5031782;28;20022;-52
2024/03/07 02:20:15;;;;;;;45.58;18.13;;;5.30;99.90;;;;;;5032049;28;20512;-54
2024/03/07 02:22:41;;;;;;;41.30;15.52;;;5.30;99.90;;;;;;5032115;28;20485;-54
2024/03/07 02:25:09;;;;;;;46.97;17.27;;;5.30;99.90;;;;;;5031978;28;20048;-53
2024/03/07 02:27:36;;;;;;;45.17;17.88;;;5.30;99.90;;;;;;5031664;28;20045;-50
2024/03/07 02:30:05;;;;;;;43.17;15.68;;;5.30;99.90;;;;;;5032806;28;20033;-54
2024/03/07 02:32:32;;;;;;;42.42;16.13;;;5.20;99.90;;;;;;5035399;28;20033;-55
2024/03/07 02:34:58;;;;;;;42.33;16.57;;;5.20;99.90;;;;;;5035420;28;20108;-55
2024/03/07 02:37:24;;;;;;;40.88;16.67;;;5.20;99.90;;;;;;5035249;28;20108;-50
2024/03/07 02:39:49;;;;;;;48.00;17.48;;;5.20;99.90;;;;;;5035467;28;20029;-53
2024/03/07 02:42:15;;;;;;;46.72;17.35;;;5.30;99.90;;;;;;5038709;28;20068;-53
2024/03/07 02:44:41;;;;;;;50.90;17.73;;;5.30;99.90;;;;;;5038534;28;20025;-54
2024/03/07 02:47:06;;;;;;;56.58;18.75;;;5.40;99.90;;;;;;5044675;28;20021;-54
2024/03/07 02:49:32;;;;;;;39.05;17.33;;;5.50;99.90;;;;;;5044668;28;20075;-55
2024/03/07 02:51:58;;;;;;;55.88;18.08;;;5.50;99.90;;;;;;5034808;28;20041;-51
2024/03/07 02:54:24;;;;;;;41.88;16.60;;;5.60;99.90;;;;;;5039643;28;20026;-37
2024/03/07 02:56:49;;;;;;;40.33;16.48;;;5.70;99.90;;;;;;5038392;28;20030;-37
2024/03/07 02:59:16;;;;;;;48.72;18.48;;;5.70;99.90;;;;;;5049247;28;20021;-38
2024/03/07 03:01:42;;;;;;;46.38;17.35;;;5.80;99.90;;;;;;5053972;28;20029;-37
2024/03/07 03:04:07;;;;;;;47.75;17.85;;;5.80;99.90;;;;;;5034744;28;20087;-37
2024/03/07 03:06:33;;;;;;;42.03;18.05;;;5.80;99.90;;;;;;5036606;28;20029;-38
2024/03/07 03:08:59;;;;;;;47.70;18.70;;;5.90;99.90;;;;;;5042000;28;20102;-37
2024/03/07 03:11:28;;;;;;;43.83;16.55;;;5.80;99.90;;;;;;5054531;28;20085;-40
2024/03/07 03:13:54;;;;;;;42.67;17.75;;;5.80;99.90;;;;;;5049887;28;20535;-38
2024/03/07 03:16:19;;;;;;;48.83;19.13;;;5.90;99.90;;;;;;5040580;28;20104;-37
2024/03/07 03:18:45;;;;;;;53.17;19.88;;;5.90;99.90;;;;;;5047764;28;20393;-39
2024/03/07 03:21:11;;;;;;;44.10;19.33;;;5.90;99.90;;;;;;5054459;28;20134;-38
2024/03/07 03:23:37;;;;;;;47.22;19.38;;;5.80;99.90;;;;;;5035561;28;20025;-40
2024/03/07 03:26:03;;;;;;;49.72;19.42;;;5.70;99.90;;;;;;5034428;28;20371;-41
2024/03/07 03:28:29;;;;;;;49.80;17.23;;;5.70;99.90;;;;;;5050239;28;20524;-40
2024/03/07 03:30:55;;;;;;;44.20;16.33;;;5.70;99.90;;;;;;5041918;28;20075;-38
2024/03/07 03:33:20;;;;;;;39.17;16.10;;;5.70;99.90;;;;;;5053355;28;20037;-37
2024/03/07 03:35:47;;;;;;;44.63;16.75;;;5.60;99.90;;;;;;5048104;28;20022;-38
2024/03/07 03:38:13;;;;;;;44.85;17.58;;;5.60;99.90;;;;;;5034477;28;20022;-38
2024/03/07 03:40:39;;;;;;;45.17;17.45;;;5.50;99.90;;;;;;5037509;28;20037;-40
2024/03/07 03:43:05;;;;;;;45.70;17.15;;;5.50;99.90;;;;;;5033696;28;20382;-38
2024/03/07 03:45:34;;;;;;;44.90;16.50;;;5.40;99.90;;;;;;5036153;28;20139;-39
2024/03/07 03:48:00;;;;;;;48.83;17.70;;;5.40;99.90;;;;;;5047791;28;20094;-37
2024/03/07 03:50:25;;;;;;;43.55;16.83;;;5.30;99.90;;;;;;5043840;28;20120;-37
2024/03/07 03:52:51;;;;;;;45.38;18.05;;;5.20;99.90;;;;;;5033617;28;20064;-38
2024/03/07 03:55:17;;;;;;;46.63;16.85;;;5.30;99.90;;;;;;5037175;28;20432;-38
2024/03/07 03:57:44;;;;;;;41.25;16.33;;;5.20;99.90;;;;;;5033947;28;20026;-38
2024/03/07 04:00:14;;;;;;;41.63;16.58;;;5.20;99.90;;;;;;5033363;28;20470;-39
2024/03/07 04:02:47;;;;;;;43.25;17.70;;;5.20;99.90;;;;;;5052953;28;20493;-37
2024/03/07 04:05:14;;;;;;;47.35;16.25;;;5.20;99.90;;;;;;5053391;28;20032;-54
2024/03/07 04:07:44;;;;;;;44.67;17.35;;;5.20;99.90;;;;;;5053797;28;20029;-54
2024/03/07 04:10:11;;;;;;;44.58;16.70;;;5.10;99.90;;;;;;5048337;28;20033;-55
2024/03/07 04:12:39;;;;;;;47.47;16.88;;;5.10;99.90;;;;;;5045961;28;20025;-53
2024/03/07 04:15:07;;;;;;;40.85;15.45;;;5.00;99.90;;;;;;5036131;28;20409;-52
2024/03/07 04:17:33;;;;;;;43.67;15.80;;;5.00;99.90;;;;;;5034542;28;20036;-57
2024/03/07 04:20:00;;;;;;;47.33;17.15;;;5.00;99.90;;;;;;5033438;28;20466;-53
2024/03/07 04:22:26;;;;;;;50.00;18.58;;;4.90;99.90;;;;;;5033315;28;20076;-52
2024/03/07 04:24:54;;;;;;;48.88;17.50;;;4.90;99.90;;;;;;5033147;28;20041;-54
2024/03/07 04:27:21;;;;;;;47.33;17.30;;;4.90;99.90;;;;;;5041247;28;20028;-53
2024/03/07 04:29:47;;;;;;;46.55;17.45;;;4.90;99.90;;;;;;5050882;28;20082;-53
2024/03/07 04:32:13;;;;;;;55.55;19.08;;;4.90;99.90;;;;;;5033065;28;20025;-54
2024/03/07 04:34:39;;;;;;;48.80;17.70;;;4.90;99.90;;;;;;5031507;28;20050;-51
2024/03/07 04:37:06;;;;;;;41.55;17.40;;;4.90;99.90;;;;;;5032849;28;20033;-54
2024/03/07 04:39:34;;;;;;;48.05;17.33;;;4.80;99.90;;;;;;5047526;28;20021;-47
2024/03/07 04:42:04;;;;;;;40.35;15.63;;;4.80;99.90;;;;;;5047081;28;20032;-53
2024/03/07 04:44:30;;;;;;;37.17;17.17;;;4.80;99.90;;;;;;5036668;28;20040;-52
2024/03/07 04:46:58;;;;;;;37.25;16.17;;;4.70;99.90;;;;;;5038342;28;20048;-54
2024/03/07 04:49:25;;;;;;;45.38;18.63;;;4.70;99.90;;;;;;5032555;28;20025;-58
2024/03/07 04:51:55;;;;;;;40.00;15.75;;;4.70;99.90;;;;;;5032627;28;20083;-56
2024/03/07 04:54:22;;;;;;;39.28;16.45;;;4.70;99.90;;;;;;5035251;28;20021;-53
2024/03/07 04:56:49;;;;;;;45.50;17.48;;;4.60;99.90;;;;;;5041594;28;20051;-53
2024/03/07 04:59:16;;;;;;;51.83;19.60;;;4.60;99.90;;;;;;5052657;28;20226;-52
2024/03/07 05:01:42;;;;;;;46.50;17.48;;;4.60;99.90;;;;;;5039426;28;20029;-51
2024/03/07 05:04:09;;;;;;;57.80;19.83;;;4.60;99.90;;;;;;5031346;28;20537;-53
2024/03/07 05:06:35;;;;;;;41.00;16.40;;;4.50;99.90;;;;;;5032585;28;20029;-53
2024/03/07 05:09:02;;;;;;;45.38;17.13;;;4.50;99.90;;;;;;5033101;28;20091;-42
2024/03/07 05:11:29;;;;;;;54.37;16.60;;;4.50;99.90;;;;;;5052255;28;20029;-50
2024/03/07 05:13:55;;;;;;;46.53;17.92;;;4.50;99.90;;;;;;5042739;28;20571;-38
2024/03/07 05:16:20;;;;;;;40.30;16.65;;;4.60;99.90;;;;;;5032321;28;20033;-37
2024/03/07 05:18:46;;;;;;;36.53;16.20;;;4.60;99.90;;;;;;5032318;28;20383;-40
2024/03/07 05:23:57;;;;;;;51.20;17.17;;;4.50;99.90;;;;;;5032529;28;20099;-43
2024/03/07 05:26:23;;;;;;;37.35;17.10;;;4.50;99.90;;;;;;5032333;28;20109;-39
2024/03/07 05:28:49;;;;;;;39.33;15.65;;;4.50;99.90;;;;;;5041633;28;20029;-38
2024/03/07 05:31:17;;;;;;;42.35;17.73;;;4.60;99.90;;;;;;5043507;28;20037;-38
2024/03/07 05:33:44;;;;;;;44.30;16.92;;;4.50;99.90;;;;;;5031892;28;20468;-37
2024/03/07 05:36:15;;;;;;;48.22;16.70;;;4.50;99.90;;;;;;5032602;28;20095;-42
2024/03/07 05:38:44;;;;;;;43.47;17.33;;;4.40;99.90;;;;;;5032022;28;20492;-38
2024/03/07 05:41:12;;;;;;;54.13;17.95;;;4.40;99.90;;;;;;5035909;28;20629;-37
2024/03/07 05:43:38;;;;;;;56.10;17.98;;;4.40;99.90;;;;;;5035882;28;20461;-38
2024/03/07 05:46:05;;;;;;;50.38;16.27;;;4.40;99.90;;;;;;5041070;28;20135;-38
2024/03/07 05:48:31;;;;;;;45.47;17.05;;;4.40;99.90;;;;;;5037533;28;20032;-39
2024/03/07 05:50:57;;;;;;;48.90;17.20;;;4.30;99.90;;;;;;5040899;28;20029;-38
2024/03/07 05:53:23;;;;;;;50.28;19.05;;;4.30;99.90;;;;;;5052008;28;20390;-38
2024/03/07 05:55:49;;;;;;;44.35;17.00;;;4.30;99.90;;;;;;5037271;28;20022;-37
2024/03/07 05:58:15;;;;;;;49.22;16.60;;;4.30;99.90;;;;;;5032054;28;20053;-38
2024/03/07 06:00:46;;;;;;;41.60;16.33;;;4.30;99.90;;;;;;5032179;28;20017;-39
2024/03/07 06:03:13;;;;;;;47.72;17.35;;;4.20;99.90;;;;;;5031909;28;20028;-39
2024/03/07 06:05:42;;;;;;;41.55;17.00;;;4.30;99.90;;;;;;5034099;28;20029;-40
2024/03/07 06:08:08;;;;;;;38.95;15.00;;;4.20;99.90;;;;;;5051614;28;20420;-39
2024/03/07 06:10:34;;;;;;;47.60;16.08;;;4.20;99.90;;;;;;5049605;28;20013;-39
2024/03/07 06:12:59;;;;;;;49.83;18.67;;;4.20;99.90;;;;;;5034313;28;20466;-39
2024/03/07 06:15:25;;;;;;;48.30;18.33;;;4.10;99.90;;;;;;5042849;28;20036;-37
2024/03/07 06:17:51;;;;;;;41.67;17.27;;;4.10;99.90;;;;;;5035690;28;20033;-39
2024/03/07 06:20:22;;;;;;;44.25;17.05;;;4.20;99.90;;;;;;5035623;28;20029;-38
2024/03/07 06:22:52;;;;;;;43.75;16.48;;;4.10;99.90;;;;;;5035512;28;20025;-43
2024/03/07 06:25:33;;;;;;;42.03;17.77;;;4.10;99.90;;;;;;5035377;28;20029;-41
2024/03/07 06:28:09;;;;;;;49.20;18.42;;;4.20;99.90;;;;;;5035438;28;20506;-40
2024/03/07 06:30:39;;;;;;;42.35;17.20;;;4.30;99.90;;;;;;5039292;28;20040;-38
2024/03/07 06:33:06;;;;;;;49.72;17.45;;;4.30;99.90;;;;;;5043418;28;20401;-41
2024/03/07 06:35:32;;;;;;;36.78;15.45;;;4.30;99.90;;;;;;5050700;28;20022;-41
2024/03/07 06:37:57;;;;;;;37.53;15.52;;;4.30;99.90;;;;;;5038204;28;20071;-39
2024/03/07 06:40:25;;;;;;;45.63;18.00;;;4.30;99.90;;;;;;5043063;28;20026;-38
2024/03/07 06:42:52;;;;;;;45.53;18.27;;;4.30;99.90;;;;;;5038883;28;20056;-38
2024/03/07 06:45:18;;;;;;;46.40;17.57;;;4.30;99.90;;;;;;5036206;28;20041;-38
2024/03/07 06:47:44;;;;;;;48.35;16.80;;;4.40;99.90;;;;;;5033448;28;20288;-38
2024/03/07 06:50:14;;;;;;;45.15;17.42;;;4.40;99.90;;;;;;5035034;28;20159;-38
2024/03/07 06:52:40;;;;;;;48.58;17.98;;;4.40;99.90;;;;;;5045362;28;20114;-38
2024/03/07 06:55:07;;;;;;;45.13;18.85;;;4.40;99.90;;;;;;5054221;28;20021;-39
2024/03/07 06:57:36;;;;;;;45.33;16.98;;;4.40;99.90;;;;;;5037174;28;20022;-39
2024/03/07 07:00:10;;;;;;;43.10;16.30;;;4.40;99.90;;;;;;5043445;28;20464;-40
2024/03/07 07:02:38;;;;;;;44.72;16.58;;;4.50;99.90;;;;;;5038183;28;20033;-38
2024/03/07 07:05:10;;;;;;;44.95;16.38;;;4.60;99.90;;;;;;5034807;28;20519;-42
2024/03/07 07:07:43;;;;;;;47.35;17.73;;;4.50;99.90;;;;;;5034504;28;20022;-38
2024/03/07 07:10:15;;;;;;;45.33;16.75;;;4.50;99.90;;;;;;5039081;28;20038;-39
2024/03/07 07:12:48;;;;;;;46.58;18.45;;;4.50;99.90;;;;;;5040112;28;20025;-40
2024/03/07 07:15:17;;;;;;;44.22;18.02;;;4.60;99.90;;;;;;5035718;28;20032;-39
2024/03/07 07:17:48;;;;;;;49.03;17.95;;;4.60;99.90;;;;;;5045840;28;20027;-39
2024/03/07 07:20:15;;;;;;;41.80;18.33;;;4.70;99.90;;;;;;5052773;28;20553;-40
2024/03/07 07:22:42;;;;;;;42.38;17.30;;;4.70;99.90;;;;;;5040335;28;20033;-48
2024/03/07 07:25:14;;;;;;;43.78;16.75;;;4.60;99.90;;;;;;5034580;28;20489;-42
2024/03/07 07:27:47;;;;;;;46.55;18.58;;;4.60;99.90;;;;;;5034288;28;20065;-39
2024/03/07 07:30:18;;;;;;;42.97;17.88;;;4.70;99.90;;;;;;5036488;28;20482;-40
2024/03/07 07:32:45;;;;;;;50.33;18.27;;;4.90;99.90;;;;;;5041294;28;20052;-39
2024/03/07 07:35:11;;;;;;;54.30;18.08;;;4.90;99.90;;;;;;5052600;28;20441;-38
2024/03/07 07:37:42;;;;;;;44.58;16.38;;;4.90;99.90;;;;;;5039872;28;20478;-42
2024/03/07 07:40:09;;;;;;;44.50;16.30;;;5.10;99.90;;;;;;5035813;28;20040;-39
2024/03/07 07:42:39;;;;;;;51.30;17.27;;;5.10;99.90;;;;;;5041583;28;20183;-41
2024/03/07 07:45:06;;;;;;;48.40;16.38;;;5.20;99.90;;;;;;5034645;28;20402;-40
2024/03/07 07:47:32;;;;;;;37.10;16.73;;;5.20;99.90;;;;;;5046427;28;20505;-40
2024/03/07 07:49:58;;;;;;;43.75;18.33;;;5.30;99.90;;;;;;5041469;28;20036;-41
2024/03/07 07:52:24;;;;;;;49.60;17.77;;;5.30;99.90;;;;;;5049119;28;20017;-43
2024/03/07 07:54:49;;;;;;;36.50;14.98;;;5.40;99.90;;;;;;5042800;28;20028;-40
2024/03/07 07:57:15;;;;;;;45.38;15.82;;;5.40;99.90;;;;;;5053765;28;20047;-40
2024/03/07 07:59:41;;;;;;;42.95;16.40;;;5.50;99.90;;;;;;5038716;28;20030;-41
2024/03/07 08:02:06;;;;;;;48.42;16.67;;;5.50;99.90;;;;;;5036020;28;20083;-38
2024/03/07 08:04:33;;;;;;;41.90;15.45;;;5.50;99.90;;;;;;5036084;28;20080;-39
2024/03/07 08:06:59;;;;;;;39.55;14.85;;;5.50;99.90;;;;;;5038677;28;20028;-39
2024/03/07 08:09:25;;;;;;;33.20;14.00;;;5.50;99.90;;;;;;5050386;28;20053;-38
2024/03/07 08:11:52;;;;;;;38.03;15.10;;;5.50;99.90;;;;;;5044991;28;20084;-41
2024/03/07 08:14:18;;;;;;;38.30;16.67;;;5.60;99.90;;;;;;5039346;28;20108;-39
2024/03/07 08:16:48;;;;;;;50.83;15.00;;;5.70;99.90;;;;;;5037071;28;20096;-37
2024/03/07 08:19:14;;;;;;;35.17;15.05;;;5.70;99.90;;;;;;5053386;28;20504;-39
2024/03/07 08:21:40;;;;;;;32.10;15.13;;;5.80;99.90;;;;;;5054034;28;20033;-37
2024/03/07 08:24:10;;;;;;;30.60;14.13;;;5.90;99.90;;;;;;5045152;28;20500;-39
2024/03/07 08:26:36;;;;;;;40.55;15.55;;;6.00;99.90;;;;;;5053224;28;20029;-38
2024/03/07 08:29:02;;;;;;;35.78;14.52;;;6.10;99.90;;;;;;5052924;28;20025;-37
2024/03/07 08:31:28;;;;;;;33.92;14.23;;;6.10;99.90;;;;;;5052973;28;20087;-39
2024/03/07 08:33:54;;;;;;;38.13;13.93;;;6.10;99.90;;;;;;5052992;28;20053;-37
2024/03/07 08:36:20;;;;;;;31.73;14.35;;;6.30;99.90;;;;;;5052967;28;20469;-40
2024/03/07 08:38:46;;;;;;;32.35;13.77;;;6.40;99.90;;;;;;5052914;28;20103;-38
2024/03/07 08:41:12;;;;;;;39.53;13.98;;;6.40;99.90;;;;;;5053186;28;20055;-38
2024/03/07 08:43:37;;;;;;;36.25;15.23;;;6.50;99.90;;;;;;5052854;28;20033;-38
2024/03/07 08:46:03;;;;;;;34.38;14.43;;;6.60;99.90;;;;;;5054390;28;20111;-37
2024/03/07 08:48:29;;;;;;;29.75;13.68;;;6.70;99.90;;;;;;5052708;28;20036;-40
2024/03/07 08:50:55;;;;;;;38.70;13.90;;;6.80;99.90;;;;;;5039934;28;20029;-40
2024/03/07 08:53:20;;;;;;;28.15;12.68;;;6.90;99.90;;;;;;5036176;28;20017;-38
2024/03/07 08:55:46;;;;;;;28.05;13.60;;;7.00;99.90;;;;;;5048832;28;20028;-38
2024/03/07 08:58:11;;;;;;;34.25;13.95;;;7.10;99.90;;;;;;5052124;28;20485;-38
2024/03/07 09:00:37;;;;;;;28.70;12.48;;;7.20;99.90;;;;;;5047745;28;20475;-38
2024/03/07 09:03:03;;;;;;;31.48;13.30;;;7.30;99.90;;;;;;5036324;28;20444;-40
2024/03/07 09:05:33;;;;;;;24.80;12.60;;;7.30;99.90;;;;;;5032203;28;20017;-39
2024/03/07 09:07:59;;;;;;;31.27;13.48;;;7.40;99.90;;;;;;5040615;28;20079;-41
2024/03/07 09:10:25;;;;;;;28.98;12.18;;;7.40;99.90;;;;;;5040390;28;20033;-40
2024/03/07 09:12:52;;;;;;;21.38;10.85;;;7.50;99.90;;;;;;5034433;28;20017;-39
2024/03/07 09:15:19;;;;;;;23.23;10.82;;;7.60;99.90;;;;;;5044080;28;20028;-41
2024/03/07 09:17:47;;;;;;;25.70;10.82;;;7.70;99.90;;;;;;5035878;28;20071;-42
2024/03/07 09:20:15;;;;;;;24.02;11.02;;;7.80;99.90;;;;;;5035663;28;20358;-41
2024/03/07 09:22:42;;;;;;;24.27;10.57;;;7.90;99.90;;;;;;5032172;28;20060;-40
2024/03/07 09:25:08;;;;;;;20.13;10.13;;;7.90;99.90;;;;;;5034244;28;20033;-45
2024/03/07 09:27:34;;;;;;;27.73;11.25;;;8.00;99.90;;;;;;5052318;28;20033;-41
2024/03/07 09:29:59;;;;;;;18.45;9.23;;;8.00;99.90;;;;;;5052316;28;20051;-39
2024/03/07 09:32:27;;;;;;;25.30;10.07;;;8.00;99.90;;;;;;5052015;28;20116;-41
2024/03/07 09:34:54;;;;;;;19.38;9.57;;;8.10;99.90;;;;;;5052561;28;20604;-40
2024/03/07 09:37:21;;;;;;;25.52;10.38;;;8.20;99.90;;;;;;5052163;28;20473;-39
2024/03/07 09:39:47;;;;;;;20.60;8.77;;;8.30;99.90;;;;;;5054398;28;20131;-39
2024/03/07 09:42:17;;;;;;;14.70;8.45;;;8.30;99.90;;;;;;5058709;28;20112;-39
2024/03/07 09:44:45;;;;;;;18.15;8.25;;;8.40;99.90;;;;;;5058767;28;20037;-42
2024/03/07 09:47:12;;;;;;;15.57;8.13;;;8.50;99.90;;;;;;5058747;28;20108;-45
2024/03/07 09:49:38;;;;;;;17.20;8.50;;;8.60;99.90;;;;;;5057251;28;20028;-41
2024/03/07 09:52:11;;;;;;;16.20;7.65;;;8.60;99.90;;;;;;5058324;28;20033;-40
2024/03/07 09:54:39;;;;;;;15.68;8.00;;;8.70;99.90;;;;;;5057450;28;20025;-40
2024/03/07 09:57:07;;;;;;;20.63;7.90;;;8.80;99.90;;;;;;5058780;28;20052;-55
2024/03/07 09:59:39;;;;;;;17.30;8.15;;;8.90;99.90;;;;;;5058592;28;20034;-53
2024/03/07 10:02:07;;;;;;;19.05;8.18;;;9.00;99.90;;;;;;5058460;28;20033;-54
2024/03/07 10:04:45;;;;;;;16.63;9.00;;;9.00;99.90;;;;;;5058812;28;20116;-55
2024/03/07 10:07:13;;;;;;;16.70;8.57;;;9.00;99.90;;;;;;5058591;28;20033;-53
2024/03/07 10:09:40;;;;;;;19.55;8.80;;;9.00;99.90;;;;;;5057258;28;20047;-53
2024/03/07 10:12:12;;;;;;;15.48;9.02;;;9.00;99.90;;;;;;5057037;28;20047;-56
2024/03/07 10:14:38;;;;;;;15.73;8.65;;;9.00;99.90;;;;;;5058621;28;20521;-54
2024/03/07 10:17:04;;;;;;;18.30;8.38;;;9.10;99.90;;;;;;5058475;28;20104;-53
2024/03/07 10:19:31;;;;;;;16.55;8.40;;;9.30;99.90;;;;;;5057178;28;20025;-53
2024/03/07 10:22:01;;;;;;;15.73;7.93;;;9.50;99.90;;;;;;5058392;28;20056;-55
2024/03/07 10:24:27;;;;;;;17.35;8.43;;;9.50;99.90;;;;;;5058798;28;20478;-53
2024/03/07 10:26:56;;;;;;;19.08;8.30;;;9.40;99.90;;;;;;5058368;28;20085;-53
2024/03/07 10:29:23;;;;;;;16.63;7.97;;;9.30;99.90;;;;;;5058391;28;20771;-54
2024/03/07 10:31:49;;;;;;;17.85;8.60;;;9.30;99.90;;;;;;5058034;28;20029;-54
2024/03/07 10:34:15;;;;;;;14.50;8.43;;;9.30;99.90;;;;;;5058239;28;20426;-54
2024/03/07 10:36:43;;;;;;;19.50;9.45;;;9.40;99.90;;;;;;5058374;28;20112;-50
2024/03/07 10:39:14;;;;;;;19.67;8.52;;;9.50;99.90;;;;;;5058281;28;20029;-55
2024/03/07 10:41:50;;;;;;;17.60;8.25;;;9.70;99.90;;;;;;5058316;28;20040;-56
2024/03/07 10:44:23;;;;;;;20.65;8.95;;;9.70;99.90;;;;;;5058521;28;20033;-54
2024/03/07 10:46:54;;;;;;;17.00;8.48;;;9.70;99.90;;;;;;5058338;28;20481;-53
2024/03/07 10:49:24;;;;;;;13.98;7.82;;;9.80;99.90;;;;;;5058398;28;20094;-53
2024/03/07 10:52:36;;;;;;;19.08;7.90;;;9.80;99.90;;;;;;5056424;28;20032;-55
2024/03/07 10:55:23;;;;;;;20.17;8.70;;;9.80;99.90;;;;;;5052884;28;20451;-52
2024/03/07 10:58:02;;;;;;;19.98;7.80;;;9.80;99.90;;;;;;5055208;28;20458;-55
2024/03/07 11:00:35;;;;;;;17.00;7.70;;;9.70;99.90;;;;;;5054772;28;20044;-54
2024/03/07 11:03:02;;;;;;;17.92;9.00;;;9.80;99.90;;;;;;5054835;28;20070;-54
2024/03/07 11:05:31;;;;;;;16.40;8.32;;;9.80;99.90;;;;;;5053461;28;20397;-43
2024/03/07 11:08:07;;;;;;;16.38;8.07;;;9.80;99.90;;;;;;5054716;28;20025;-56
2024/03/07 11:10:35;;;;;;;14.13;7.78;;;10.00;99.90;;;;;;5054923;28;20516;-54
2024/03/07 11:13:01;;;;;;;;;;;10.20;99.90;;;;;;5054753;28;20047;-55
2024/03/07 11:15:27;;;;;;;12.88;6.70;;;10.30;99.90;;;;;;5036683;28;19905;-54
2024/03/07 11:17:55;;;;;;;14.30;7.70;;;10.40;99.90;;;;;;5054497;28;20021;-55
2024/03/07 11:20:23;;;;;;;23.77;8.40;;;10.50;99.90;;;;;;5054540;28;20048;-55
2024/03/07 11:22:50;;;;;;;14.57;7.47;;;10.50;99.90;;;;;;5054402;28;20099;-56
2024/03/07 11:25:21;;;;;;;27.52;6.95;;;10.40;99.90;;;;;;5054365;28;20075;-54
2024/03/07 11:27:57;;;;;;;15.30;8.00;;;10.20;99.90;;;;;;5054210;28;20508;-55
2024/03/07 11:30:24;;;;;;;18.80;7.90;;;10.10;99.90;;;;;;5054258;28;20075;-55
2024/03/07 11:32:54;;;;;;;18.50;7.93;;;10.20;99.90;;;;;;5054197;28;20489;-53
2024/03/07 11:35:28;;;;;;;20.38;8.55;;;10.30;99.90;;;;;;5052167;28;20024;-55
2024/03/07 11:37:57;;;;;;;17.38;7.85;;;10.30;99.90;;;;;;5045459;28;20044;-57
2024/03/07 11:40:24;;;;;;;17.27;7.50;;;10.20;99.90;;;;;;5034134;28;20026;-53
2024/03/07 11:42:51;;;;;;;17.45;7.53;;;10.20;99.90;;;;;;5045701;28;20102;-55
2024/03/07 11:45:25;;;;;;;15.82;7.07;;;10.20;99.90;;;;;;5035581;28;20403;-51
2024/03/07 11:48:00;;;;;;;14.38;7.10;;;10.30;99.90;;;;;;5034333;28;20482;-53
2024/03/07 11:50:34;;;;;;;14.23;7.22;;;10.60;99.90;;;;;;5033932;28;20029;-54
2024/03/07 11:53:01;;;;;;;17.20;8.20;;;11.00;99.90;;;;;;5034144;28;20489;-54
2024/03/07 11:55:29;;;;;;;16.85;7.95;;;11.30;99.90;;;;;;5050372;28;20150;-56
2024/03/07 11:57:55;;;;;;;18.15;7.85;;;11.50;99.90;;;;;;5053750;28;20112;-55
2024/03/07 12:00:24;;;;;;;12.98;7.03;;;11.60;99.90;;;;;;5052660;28;20111;-56
2024/03/07 12:02:50;;;;;;;14.43;8.57;;;11.70;99.90;;;;;;5053175;28;20179;-52
2024/03/07 12:05:17;;;;;;;17.60;7.93;;;12.10;99.90;;;;;;5053741;28;20049;-53
2024/03/07 12:07:43;;;;;;;12.82;7.22;;;12.00;99.90;;;;;;5053464;28;20021;-54
2024/03/07 12:10:10;;;;;;;13.90;7.07;;;11.80;99.90;;;;;;5053794;28;20468;-52
2024/03/07 12:12:38;;;;;;;13.40;6.45;;;11.80;99.90;;;;;;5053632;28;20457;-55
2024/03/07 12:15:15;;;;;;;12.98;6.72;;;11.60;99.90;;;;;;5035879;28;20022;-54
2024/03/07 12:17:42;;;;;;;15.90;8.00;;;11.50;99.90;;;;;;5032870;28;20025;-53
2024/03/07 12:20:24;;;;;;;16.38;7.85;;;11.40;99.90;;;;;;5033445;28;20087;-54
2024/03/07 12:22:53;;;;;;;17.92;7.68;;;11.40;99.90;;;;;;5033382;28;20041;-54
2024/03/07 12:25:21;;;;;;;18.05;8.75;;;11.40;99.90;;;;;;5033393;28;20482;-53
2024/03/07 12:28:00;;;;;;;13.73;7.60;;;11.60;99.90;;;;;;5032333;28;20470;-53
2024/03/07 12:30:27;;;;;;;16.83;8.18;;;11.50;99.90;;;;;;5037092;28;20025;-56
2024/03/07 12:32:53;;;;;;;16.85;8.13;;;11.50;99.90;;;;;;5051585;28;20414;-55
2024/03/07 12:35:19;;;;;;;18.33;9.30;;;11.50;99.90;;;;;;5052306;28;20477;-52
2024/03/07 12:37:46;;;;;;;15.23;7.32;;;11.70;99.90;;;;;;5053387;28;20025;-55
2024/03/07 12:40:19;;;;;;;17.75;8.45;;;11.80;99.90;;;;;;5052926;28;20021;-55
2024/03/07 12:42:48;;;;;;;14.93;7.28;;;11.80;99.90;;;;;;5052992;28;20532;-53